createdAt,value
2023-03-16T00:02:11.074Z,96529.59
2023-03-16T00:04:38.185Z,96528.59
2023-03-16T00:07:10.036Z,96526.16
2023-03-16T00:09:41.359Z,96528.13
2023-03-16T00:12:15.862Z,96535.44
2023-03-16T00:14:44.790Z,96537.09
2023-03-16T00:17:20.538Z,96540.91
2023-03-16T00:19:55.717Z,96532.50
2023-03-16T00:22:25.433Z,96535.16
2023-03-16T00:24:55.853Z,96540.03
2023-03-16T00:27:24.933Z,96538.88
2023-03-16T00:29:56.269Z,96548.16
2023-03-16T00:32:32.364Z,96546.56
2023-03-16T00:35:02.394Z,96547.38
2023-03-16T00:37:31.477Z,96541.69
2023-03-16T00:40:00.470Z,96546.38
2023-03-16T00:42:30.293Z,96549.25
2023-03-16T00:44:59.320Z,96545.97
2023-03-16T00:47:30.123Z,96554.34
2023-03-16T00:49:57.819Z,96543.78
2023-03-16T00:52:25.246Z,96544.53
2023-03-16T00:54:55.069Z,96538.31
2023-03-16T00:57:25.428Z,96540.22
2023-03-16T00:59:53.097Z,96542.41
2023-03-16T01:02:24.929Z,96538.53
2023-03-16T01:04:55.046Z,96537.97
2023-03-16T01:07:22.761Z,96538.25
2023-03-16T01:09:51.135Z,96536.66
2023-03-16T01:12:19.990Z,96538.03
2023-03-16T01:14:47.589Z,96533.69
2023-03-16T01:17:15.609Z,96538.53
2023-03-16T01:19:43.215Z,96538.81
2023-03-16T01:22:11.997Z,96546.22
2023-03-16T01:24:39.590Z,96547.34
2023-03-16T01:27:07.746Z,96543.88
2023-03-16T01:29:38.677Z,96542.59
2023-03-16T01:32:06.934Z,96536.44
2023-03-16T01:34:35.376Z,96548.34
2023-03-16T01:37:03.576Z,96540.88
2023-03-16T01:39:38.967Z,96545.75
2023-03-16T01:42:07.030Z,96551.13
2023-03-16T01:44:58.105Z,96546.00
2023-03-16T01:47:30.431Z,96547.13
2023-03-16T01:49:58.081Z,96550.06
2023-03-16T01:52:33.712Z,96548.75
2023-03-16T01:55:05.769Z,96543.84
2023-03-16T01:57:37.307Z,96537.91
2023-03-16T02:00:19.239Z,96533.03
2023-03-16T02:02:59.028Z,96531.31
2023-03-16T02:05:58.455Z,96529.22
2023-03-16T02:08:25.601Z,96536.53
2023-03-16T02:10:54.736Z,96536.56
2023-03-16T02:13:24.003Z,96530.13
2023-03-16T02:15:55.058Z,96528.56
2023-03-16T02:18:25.341Z,96529.56
2023-03-16T02:21:05.546Z,96529.03
2023-03-16T02:23:33.361Z,96531.25
2023-03-16T02:26:08.507Z,96537.81
2023-03-16T02:28:48.852Z,96542.66
2023-03-16T02:31:18.280Z,96549.09
2023-03-16T02:33:46.458Z,96544.03
2023-03-16T02:36:19.043Z,96547.91
2023-03-16T02:38:48.209Z,96544.06
2023-03-16T02:41:20.131Z,96544.66
2023-03-16T02:44:10.882Z,96537.13
2023-03-16T02:46:38.606Z,96541.72
2023-03-16T02:49:11.967Z,96532.81
2023-03-16T02:51:39.779Z,96533.97
2023-03-16T02:54:07.328Z,96544.00
2023-03-16T02:56:35.152Z,96541.31
2023-03-16T02:59:02.593Z,96546.22
2023-03-16T03:01:31.997Z,96548.13
2023-03-16T03:03:59.364Z,96544.31
2023-03-16T03:06:26.694Z,96551.31
2023-03-16T03:08:54.099Z,96548.84
2023-03-16T03:11:21.775Z,96555.53
2023-03-16T03:13:49.015Z,96564.16
2023-03-16T03:16:21.589Z,96562.84
2023-03-16T03:18:50.022Z,96563.63
2023-03-16T03:21:17.761Z,96560.91
2023-03-16T03:23:46.787Z,96567.41
2023-03-16T03:26:15.643Z,96561.66
2023-03-16T03:28:44.962Z,96559.75
2023-03-16T03:31:18.170Z,96561.88
2023-03-16T03:33:45.820Z,96561.59
2023-03-16T03:36:13.878Z,96559.63
2023-03-16T03:38:42.353Z,96558.56
2023-03-16T03:41:10.460Z,96555.84
2023-03-16T03:43:39.213Z,96560.16
2023-03-16T03:46:10.141Z,96558.78
2023-03-16T03:48:37.257Z,96558.78
2023-03-16T03:51:06.002Z,96563.63
2023-03-16T03:53:32.965Z,96556.84
2023-03-16T03:56:20.593Z,96569.25
2023-03-16T03:58:48.217Z,96560.31
2023-03-16T04:01:23.120Z,96567.06
2023-03-16T04:03:50.666Z,96561.94
2023-03-16T04:06:18.819Z,96567.75
2023-03-16T04:08:45.992Z,96561.84
2023-03-16T04:11:18.363Z,96568.13
2023-03-16T04:13:45.602Z,96572.53
2023-03-16T04:16:16.449Z,96575.50
2023-03-16T04:18:46.540Z,96583.28
2023-03-16T04:21:18.141Z,96577.53
2023-03-16T04:23:48.247Z,96581.75
2023-03-16T04:26:16.674Z,96585.00
2023-03-16T04:28:45.782Z,96579.63
2023-03-16T04:31:16.138Z,96587.47
2023-03-16T04:33:45.983Z,96591.22
2023-03-16T04:36:13.210Z,96579.06
2023-03-16T04:38:42.317Z,96585.50
2023-03-16T04:41:11.665Z,96581.16
2023-03-16T04:43:45.338Z,96589.50
2023-03-16T04:46:19.326Z,96590.78
2023-03-16T04:48:46.242Z,96581.59
2023-03-16T04:51:13.280Z,96573.72
2023-03-16T04:53:46.610Z,96574.50
2023-03-16T04:56:24.061Z,96576.03
2023-03-16T04:58:57.183Z,96565.53
2023-03-16T05:01:28.588Z,96567.22
2023-03-16T05:03:59.785Z,96565.06
2023-03-16T05:06:29.648Z,96567.50
2023-03-16T05:09:01.027Z,96566.44
2023-03-16T05:11:29.918Z,96577.59
2023-03-16T05:13:59.966Z,96583.91
2023-03-16T05:16:27.939Z,96580.69
2023-03-16T05:18:58.572Z,96583.97
2023-03-16T05:21:32.657Z,96583.22
2023-03-16T05:24:06.230Z,96593.25
2023-03-16T05:26:34.343Z,96596.59
2023-03-16T05:29:02.224Z,96589.06
2023-03-16T05:31:34.681Z,96591.78
2023-03-16T05:34:04.913Z,96595.34
2023-03-16T05:36:32.160Z,96589.97
2023-03-16T05:39:06.419Z,96590.25
2023-03-16T05:41:37.181Z,96593.53
2023-03-16T05:44:11.421Z,96595.66
2023-03-16T05:46:57.459Z,96604.91
2023-03-16T05:49:24.953Z,96605.72
2023-03-16T05:51:52.579Z,96595.16
2023-03-16T05:54:20.642Z,96595.38
2023-03-16T05:56:48.597Z,96600.78
2023-03-16T05:59:18.237Z,96598.91
2023-03-16T06:01:51.492Z,96597.03
2023-03-16T06:04:21.974Z,96598.91
2023-03-16T06:06:49.421Z,96596.50
2023-03-16T06:09:21.631Z,96599.19
2023-03-16T06:11:48.973Z,96596.50
2023-03-16T06:14:17.772Z,96594.94
2023-03-16T06:16:46.693Z,96605.47
2023-03-16T06:19:18.191Z,96600.69
2023-03-16T06:21:48.398Z,96601.72
2023-03-16T06:24:15.550Z,96606.00
2023-03-16T06:26:42.361Z,96598.06
2023-03-16T06:29:12.374Z,96592.91
2023-03-16T06:31:41.088Z,96594.78
2023-03-16T06:34:08.062Z,96588.25
2023-03-16T06:36:35.082Z,96605.16
2023-03-16T06:39:04.546Z,96604.16
2023-03-16T06:41:36.561Z,96593.66
2023-03-16T06:44:04.137Z,96609.47
2023-03-16T06:46:33.109Z,96598.91
2023-03-16T06:49:01.753Z,96600.00
2023-03-16T06:51:29.167Z,96593.69
2023-03-16T06:53:56.362Z,96597.19
2023-03-16T06:56:24.424Z,96597.63
2023-03-16T06:58:52.011Z,96595.88
2023-03-16T07:01:18.918Z,96595.31
2023-03-16T07:03:46.078Z,96593.94
2023-03-16T07:06:23.957Z,96590.88
2023-03-16T07:08:50.780Z,96598.63
2023-03-16T07:11:19.006Z,96599.47
2023-03-16T07:13:45.753Z,96598.72
2023-03-16T07:16:14.193Z,96595.44
2023-03-16T07:18:44.594Z,96596.16
2023-03-16T07:21:14.404Z,96596.63
2023-03-16T07:23:41.981Z,96598.28
2023-03-16T07:26:09.857Z,96592.59
2023-03-16T07:28:41.170Z,96599.78
2023-03-16T07:31:09.475Z,96600.78
2023-03-16T07:33:39.307Z,96596.50
2023-03-16T07:36:10.765Z,96602.34
2023-03-16T07:38:42.663Z,96599.94
2023-03-16T07:41:10.673Z,96599.94
2023-03-16T07:43:37.820Z,96596.44
2023-03-16T07:46:05.532Z,96597.91
2023-03-16T07:48:32.748Z,96598.41
2023-03-16T07:51:02.383Z,96599.56
2023-03-16T07:53:30.413Z,96590.63
2023-03-16T07:56:15.908Z,96598.09
2023-03-16T07:58:46.193Z,96601.97
2023-03-16T08:01:13.502Z,96593.97
2023-03-16T08:03:40.599Z,96601.81
2023-03-16T08:06:07.435Z,96595.31
2023-03-16T08:08:36.003Z,96609.47
2023-03-16T08:11:03.795Z,96611.81
2023-03-16T08:13:44.968Z,96607.31
2023-03-16T08:16:13.498Z,96610.97
2023-03-16T08:18:43.727Z,96606.47
2023-03-16T08:21:11.102Z,96607.25
2023-03-16T08:23:37.849Z,96608.88
2023-03-16T08:26:09.159Z,96603.16
2023-03-16T08:28:37.867Z,96605.38
2023-03-16T08:31:09.102Z,96602.25
2023-03-16T08:33:44.228Z,96614.94
2023-03-16T08:36:13.578Z,96612.16
2023-03-16T08:38:53.534Z,96612.84
2023-03-16T08:41:30.799Z,96617.06
2023-03-16T08:44:00.319Z,96614.78
2023-03-16T08:46:27.574Z,96615.06
2023-03-16T08:48:58.030Z,96607.31
2023-03-16T08:51:26.364Z,96607.03
2023-03-16T08:53:54.219Z,96603.16
2023-03-16T08:56:21.558Z,96607.06
2023-03-16T08:58:50.498Z,96602.91
2023-03-16T09:01:19.250Z,96610.03
2023-03-16T09:03:46.621Z,96618.97
2023-03-16T09:06:16.056Z,96610.94
2023-03-16T09:08:45.530Z,96608.50
2023-03-16T09:11:15.045Z,96612.84
2023-03-16T09:13:43.230Z,96617.69
2023-03-16T09:16:12.173Z,96612.38
2023-03-16T09:18:38.930Z,96614.50
2023-03-16T09:21:07.741Z,96613.53
2023-03-16T09:23:34.844Z,96611.41
2023-03-16T09:26:03.156Z,96623.28
2023-03-16T09:28:31.452Z,96610.16
2023-03-16T09:30:59.008Z,96608.06
2023-03-16T09:33:26.943Z,96614.34
2023-03-16T09:35:54.150Z,96622.75
2023-03-16T09:38:20.924Z,96620.06
2023-03-16T09:41:08.519Z,96618.91
2023-03-16T09:43:53.644Z,96623.88
2023-03-16T09:46:35.797Z,96622.25
2023-03-16T09:49:03.901Z,96612.31
2023-03-16T09:51:39.987Z,96610.94
2023-03-16T09:54:39.368Z,96610.94
2023-03-16T09:57:15.762Z,96613.81
2023-03-16T09:59:42.524Z,96609.50
2023-03-16T10:02:38.049Z,96619.38
2023-03-16T10:05:14.874Z,96610.53
2023-03-16T10:08:07.778Z,96603.91
2023-03-16T10:11:30.402Z,96610.03
2023-03-16T10:14:17.498Z,96598.72
2023-03-16T10:16:50.632Z,96602.31
2023-03-16T10:19:33.418Z,96598.34
2023-03-16T10:22:03.619Z,96597.56
2023-03-16T10:24:34.342Z,96608.56
2023-03-16T10:27:01.842Z,96599.28
2023-03-16T10:29:32.227Z,96598.38
2023-03-16T10:32:12.378Z,96601.63
2023-03-16T10:34:39.071Z,96596.63
2023-03-16T10:37:06.048Z,96595.09
2023-03-16T10:39:36.974Z,96584.53
2023-03-16T10:42:03.680Z,96586.97
2023-03-16T10:44:30.852Z,96585.56
2023-03-16T10:47:08.404Z,96577.09
2023-03-16T10:49:44.618Z,96574.06
2023-03-16T10:52:34.555Z,96578.13
2023-03-16T10:55:08.199Z,96573.25
2023-03-16T10:57:41.510Z,96567.88
2023-03-16T11:00:15.038Z,96562.59
2023-03-16T11:02:42.847Z,96558.28
2023-03-16T11:05:19.547Z,96554.44
2023-03-16T11:07:55.518Z,96551.53
2023-03-16T11:10:38.005Z,96562.31
2023-03-16T11:13:21.046Z,96551.03
2023-03-16T11:15:58.684Z,96553.94
2023-03-16T11:18:43.713Z,96543.66
2023-03-16T11:21:17.411Z,96541.78
2023-03-16T11:23:49.879Z,96538.72
2023-03-16T11:26:28.067Z,96538.25
2023-03-16T11:29:02.356Z,96537.75
2023-03-16T11:31:43.029Z,96539.69
2023-03-16T11:34:19.474Z,96530.00
2023-03-16T11:36:53.562Z,96528.06
2023-03-16T11:39:40.530Z,96532.91
2023-03-16T11:42:26.574Z,96522.97
2023-03-16T11:45:19.903Z,96518.31
2023-03-16T11:47:55.759Z,96515.38
2023-03-16T11:50:35.697Z,96519.53
2023-03-16T11:53:30.693Z,96515.47
2023-03-16T11:56:05.580Z,96508.41
2023-03-16T11:58:51.413Z,96507.75
2023-03-16T12:01:23.252Z,96497.44
2023-03-16T12:04:18.373Z,96486.63
2023-03-16T12:07:27.079Z,96482.59
2023-03-16T12:10:06.948Z,96468.75
2023-03-16T12:12:43.094Z,96459.31
2023-03-16T12:15:38.511Z,96466.03
2023-03-16T12:18:22.195Z,96457.72
2023-03-16T12:20:57.929Z,96454.06
2023-03-16T12:23:31.456Z,96456.50
2023-03-16T12:26:00.139Z,96456.97
2023-03-16T12:28:29.571Z,96448.34
2023-03-16T12:31:33.987Z,96452.25
2023-03-16T12:34:26.243Z,96443.22
2023-03-16T12:37:02.094Z,96446.03
2023-03-16T12:39:51.693Z,96448.41
2023-03-16T12:42:52.556Z,96446.91
2023-03-16T12:45:23.123Z,96442.53
2023-03-16T12:48:04.369Z,96428.00
2023-03-16T12:50:31.942Z,96434.81
2023-03-16T12:52:58.806Z,96431.91
2023-03-16T12:55:48.234Z,96424.09
2023-03-16T12:58:17.883Z,96432.16
2023-03-16T13:00:56.878Z,96431.00
2023-03-16T13:03:25.874Z,96437.53
2023-03-16T13:05:56.397Z,96426.09
2023-03-16T13:08:23.889Z,96430.63
2023-03-16T13:11:05.920Z,96427.16
2023-03-16T13:13:34.171Z,96425.75
2023-03-16T13:16:12.619Z,96426.50
2023-03-16T13:18:45.485Z,96427.00
2023-03-16T13:21:26.307Z,96422.75
2023-03-16T13:24:18.120Z,96418.94
2023-03-16T13:26:50.241Z,96422.00
2023-03-16T13:29:24.121Z,96420.28
2023-03-16T13:31:52.661Z,96416.53
2023-03-16T13:34:29.888Z,96415.22
2023-03-16T13:36:58.835Z,96419.22
2023-03-16T13:39:27.833Z,96416.94
2023-03-16T13:41:57.357Z,96408.00
2023-03-16T13:44:25.259Z,96407.25
2023-03-16T13:46:53.217Z,96406.47
2023-03-16T13:49:20.947Z,96416.81
2023-03-16T13:51:48.697Z,96406.91
2023-03-16T13:54:31.688Z,96403.19
2023-03-16T13:57:03.593Z,96408.66
2023-03-16T13:59:32.022Z,96413.34
2023-03-16T14:02:02.123Z,96399.53
2023-03-16T14:04:31.653Z,96408.75
2023-03-16T14:07:00.616Z,96410.81
2023-03-16T14:09:35.062Z,96405.25
2023-03-16T14:12:02.674Z,96410.06
2023-03-16T14:14:39.703Z,96401.97
2023-03-16T14:17:16.437Z,96416.69
2023-03-16T14:19:47.056Z,96393.97
2023-03-16T14:22:17.405Z,96398.31
2023-03-16T14:24:46.025Z,96398.84
2023-03-16T14:27:33.010Z,96391.28
2023-03-16T14:30:15.808Z,96379.53
2023-03-16T14:32:54.821Z,96381.88
2023-03-16T14:35:22.982Z,96382.16
2023-03-16T14:37:51.858Z,96379.41
2023-03-16T14:40:28.812Z,96384.63
2023-03-16T14:42:58.664Z,96380.50
2023-03-16T14:45:33.967Z,96385.09
2023-03-16T14:48:17.597Z,96372.59
2023-03-16T14:50:45.217Z,96382.03
2023-03-16T14:53:12.676Z,96378.63
2023-03-16T14:55:39.951Z,96383.28
2023-03-16T14:58:06.873Z,96378.81
2023-03-16T15:00:39.870Z,96365.78
2023-03-16T15:03:17.982Z,96369.94
2023-03-16T15:05:50.515Z,96381.38
2023-03-16T15:08:31.511Z,96374.94
2023-03-16T15:11:01.405Z,96373.81
2023-03-16T15:13:37.576Z,96370.84
2023-03-16T15:16:05.966Z,96371.09
2023-03-16T15:18:33.676Z,96361.38
2023-03-16T15:21:02.663Z,96366.84
2023-03-16T15:23:31.087Z,96367.72
2023-03-16T15:26:03.061Z,96357.72
2023-03-16T15:28:30.317Z,96356.47
2023-03-16T15:30:59.962Z,96361.59
2023-03-16T15:33:27.524Z,96353.38
2023-03-16T15:35:57.282Z,96364.34
2023-03-16T15:38:32.449Z,96339.75
2023-03-16T15:40:59.844Z,96349.63
2023-03-16T15:43:29.200Z,96347.38
2023-03-16T15:45:57.489Z,96352.53
2023-03-16T15:48:25.491Z,96343.22
2023-03-16T15:51:28.198Z,96349.03
2023-03-16T15:53:58.634Z,96352.53
2023-03-16T15:56:30.299Z,96338.94
2023-03-16T15:59:00.497Z,96346.16
2023-03-16T16:01:35.100Z,96334.25
2023-03-16T16:04:01.924Z,96346.00
2023-03-16T16:06:30.454Z,96339.28
2023-03-16T16:08:57.820Z,96342.84
2023-03-16T16:11:26.525Z,96346.91
2023-03-16T16:13:55.506Z,96346.91
2023-03-16T16:16:24.079Z,96351.72
2023-03-16T16:18:50.998Z,96355.28
2023-03-16T16:21:23.060Z,96361.16
2023-03-16T16:23:50.905Z,96361.94
2023-03-16T16:26:27.826Z,96360.66
2023-03-16T16:28:59.294Z,96362.75
2023-03-16T16:31:28.399Z,96359.38
2023-03-16T16:33:55.874Z,96355.09
2023-03-16T16:36:22.862Z,96351.88
2023-03-16T16:38:50.436Z,96353.19
2023-03-16T16:41:31.152Z,96358.88
2023-03-16T16:43:59.502Z,96363.88
2023-03-16T16:46:28.626Z,96359.72
2023-03-16T16:49:06.340Z,96359.06
2023-03-16T16:51:33.657Z,96351.69
2023-03-16T16:54:02.150Z,96354.63
2023-03-16T16:56:31.994Z,96354.66
2023-03-16T16:59:02.701Z,96354.84
2023-03-16T17:01:35.415Z,96362.69
2023-03-16T17:04:03.356Z,96365.41
2023-03-16T17:06:30.934Z,96358.47
2023-03-16T17:08:57.705Z,96354.28
2023-03-16T17:11:30.112Z,96354.25
2023-03-16T17:13:59.535Z,96351.84
2023-03-16T17:16:27.911Z,96346.19
2023-03-16T17:18:55.614Z,96343.88
2023-03-16T17:21:23.817Z,96343.56
2023-03-16T17:23:52.795Z,96348.94
2023-03-16T17:26:23.239Z,96345.56
2023-03-16T17:28:53.896Z,96351.44
2023-03-16T17:31:24.370Z,96340.47
2023-03-16T17:33:52.925Z,96341.31
2023-03-16T17:36:21.259Z,96345.91
2023-03-16T17:38:48.456Z,96338.06
2023-03-16T17:41:24.248Z,96338.38
2023-03-16T17:43:54.756Z,96345.16
2023-03-16T17:46:24.947Z,96340.59
2023-03-16T17:48:53.064Z,96337.31
2023-03-16T17:51:21.239Z,96348.63
2023-03-16T17:53:48.128Z,96348.56
2023-03-16T17:56:22.816Z,96347.72
2023-03-16T17:58:53.227Z,96353.94
2023-03-16T18:01:23.073Z,96354.25
2023-03-16T18:03:50.719Z,96358.81
2023-03-16T18:06:25.270Z,96362.44
2023-03-16T18:08:52.931Z,96366.06
2023-03-16T18:11:23.482Z,96357.53
2023-03-16T18:13:52.238Z,96351.19
2023-03-16T18:16:28.564Z,96356.44
2023-03-16T18:18:59.964Z,96357.66
2023-03-16T18:21:27.367Z,96357.84
2023-03-16T18:23:54.490Z,96354.53
2023-03-16T18:26:21.850Z,96350.78
2023-03-16T18:28:48.589Z,96356.72
2023-03-16T18:31:25.014Z,96351.00
2023-03-16T18:34:02.831Z,96347.84
2023-03-16T18:36:32.272Z,96351.38
2023-03-16T18:39:01.980Z,96343.75
2023-03-16T18:41:31.803Z,96340.03
2023-03-16T18:44:01.376Z,96339.91
2023-03-16T18:46:31.094Z,96337.50
2023-03-16T18:49:28.005Z,96344.53
2023-03-16T18:51:55.173Z,96351.66
2023-03-16T18:54:23.713Z,96354.97
2023-03-16T18:56:51.020Z,96349.97
2023-03-16T18:59:17.863Z,96353.94
2023-03-16T19:01:45.506Z,96348.53
2023-03-16T19:04:31.241Z,96363.19
2023-03-16T19:06:58.171Z,96355.75
2023-03-16T19:09:28.527Z,96362.41
2023-03-16T19:11:55.780Z,96352.28
2023-03-16T19:14:24.865Z,96350.34
2023-03-16T19:16:52.442Z,96349.13
2023-03-16T19:19:21.978Z,96353.78
2023-03-16T19:21:53.841Z,96364.41
2023-03-16T19:24:30.024Z,96345.13
2023-03-16T19:26:56.959Z,96352.75
2023-03-16T19:29:33.699Z,96355.97
2023-03-16T19:32:01.976Z,96349.97
2023-03-16T19:34:29.348Z,96356.28
2023-03-16T19:36:56.626Z,96355.28
2023-03-16T19:39:23.547Z,96366.41
2023-03-16T19:41:56.090Z,96350.94
2023-03-16T19:44:25.479Z,96351.31
2023-03-16T19:46:53.364Z,96350.41
2023-03-16T19:49:26.104Z,96345.47
2023-03-16T19:51:54.903Z,96347.28
2023-03-16T19:54:32.212Z,96342.31
2023-03-16T19:57:04.181Z,96348.38
2023-03-16T19:59:33.635Z,96340.06
2023-03-16T20:02:01.520Z,96335.25
2023-03-16T20:04:29.782Z,96339.91
2023-03-16T20:06:57.501Z,96333.28
2023-03-16T20:09:24.792Z,96342.50
2023-03-16T20:11:52.152Z,96334.09
2023-03-16T20:14:22.527Z,96335.47
2023-03-16T20:16:50.273Z,96331.16
2023-03-16T20:19:18.120Z,96337.16
2023-03-16T20:21:46.960Z,96343.81
2023-03-16T20:24:17.005Z,96346.09
2023-03-16T20:26:45.975Z,96345.94
2023-03-16T20:29:19.362Z,96336.88
2023-03-16T20:31:47.986Z,96336.06
2023-03-16T20:34:21.624Z,96330.16
2023-03-16T20:36:48.904Z,96328.03
2023-03-16T20:39:17.585Z,96324.34
2023-03-16T20:41:44.856Z,96320.56
2023-03-16T20:44:18.761Z,96325.38
2023-03-16T20:46:46.069Z,96340.09
2023-03-16T20:49:22.900Z,96348.31
2023-03-16T20:51:50.927Z,96345.66
2023-03-16T20:54:19.107Z,96349.78
2023-03-16T20:56:47.161Z,96341.31
2023-03-16T20:59:22.036Z,96337.84
2023-03-16T21:01:49.756Z,96327.47
2023-03-16T21:04:22.835Z,96330.84
2023-03-16T21:06:51.215Z,96323.16
2023-03-16T21:09:19.766Z,96323.25
2023-03-16T21:11:48.083Z,96327.41
2023-03-16T21:14:22.624Z,96320.03
2023-03-16T21:16:49.871Z,96326.47
2023-03-16T21:19:23.121Z,96324.22
2023-03-16T21:21:51.029Z,96327.50
2023-03-16T21:24:18.150Z,96331.06
2023-03-16T21:26:45.611Z,96332.97
2023-03-16T21:29:16.075Z,96314.38
2023-03-16T21:31:43.105Z,96329.28
2023-03-16T21:34:31.782Z,96320.59
2023-03-16T21:36:59.580Z,96326.88
2023-03-16T21:39:27.454Z,96313.94
2023-03-16T21:41:54.671Z,96314.91
2023-03-16T21:44:22.126Z,96303.78
2023-03-16T21:46:50.087Z,96308.72
2023-03-16T21:49:17.020Z,96297.94
2023-03-16T21:51:43.990Z,96309.34
2023-03-16T21:54:14.951Z,96299.63
2023-03-16T21:56:42.377Z,96295.50
2023-03-16T21:59:11.135Z,96310.56
2023-03-16T22:01:54.388Z,96299.56
2023-03-16T22:04:26.912Z,96300.13
2023-03-16T22:06:53.792Z,96297.91
2023-03-16T22:09:22.658Z,96296.91
2023-03-16T22:11:50.217Z,96294.19
2023-03-16T22:14:17.002Z,96288.75
2023-03-16T22:16:43.984Z,96279.53
2023-03-16T22:19:17.962Z,96288.75
2023-03-16T22:21:45.128Z,96289.06
2023-03-16T22:24:18.893Z,96287.03
2023-03-16T22:26:46.524Z,96280.31
2023-03-16T22:29:28.531Z,96282.72
2023-03-16T22:32:04.357Z,96280.31
2023-03-16T22:34:32.712Z,96290.69
2023-03-16T22:37:01.750Z,96287.44
2023-03-16T22:39:32.208Z,96283.06
2023-03-16T22:42:00.420Z,96283.63
2023-03-16T22:44:28.050Z,96277.09
2023-03-16T22:46:56.282Z,96278.22
2023-03-16T22:49:28.557Z,96276.69
2023-03-16T22:51:57.346Z,96282.09
2023-03-16T22:54:28.121Z,96285.00
2023-03-16T22:56:55.922Z,96278.78
2023-03-16T22:59:24.536Z,96283.22
2023-03-16T23:01:52.194Z,96275.00
2023-03-16T23:04:22.594Z,96277.75
2023-03-16T23:06:53.907Z,96277.00
2023-03-16T23:09:22.049Z,96285.63
2023-03-16T23:11:54.455Z,96289.75
2023-03-16T23:14:24.310Z,96286.78
2023-03-16T23:16:53.054Z,96293.59
2023-03-16T23:19:34.751Z,96292.75
2023-03-16T23:22:07.133Z,96298.13
2023-03-16T23:24:37.253Z,96298.34
2023-03-16T23:27:05.548Z,96293.22
2023-03-16T23:29:32.412Z,96285.94
2023-03-16T23:31:59.246Z,96291.63
2023-03-16T23:34:26.394Z,96290.34
2023-03-16T23:36:53.525Z,96286.78
2023-03-16T23:39:20.538Z,96293.34
2023-03-16T23:41:48.926Z,96292.81
2023-03-16T23:44:17.974Z,96286.63
2023-03-16T23:46:45.327Z,96285.84
2023-03-16T23:49:18.826Z,96286.09
2023-03-16T23:51:47.256Z,96292.34
2023-03-16T23:54:19.674Z,96279.44
2023-03-16T23:56:47.341Z,96285.69
2023-03-16T23:59:14.667Z,96281.41
